createdAt,value
2022-10-10T00:01:40.566Z,9.77
2022-10-10T00:04:09.903Z,9.74
2022-10-10T00:06:37.883Z,9.69
2022-10-10T00:09:06.796Z,9.57
2022-10-10T00:11:35.932Z,9.56
2022-10-10T00:14:03.915Z,9.70
2022-10-10T00:16:31.892Z,9.72
2022-10-10T00:18:59.837Z,9.94
2022-10-10T00:21:29.187Z,10.20
2022-10-10T00:23:57.234Z,9.83
2022-10-10T00:26:25.188Z,9.72
2022-10-10T00:28:53.150Z,9.78
2022-10-10T00:31:21.075Z,9.73
2022-10-10T00:33:49.131Z,9.65
2022-10-10T00:36:17.114Z,9.78
2022-10-10T00:38:46.633Z,9.62
2022-10-10T00:41:17.276Z,9.68
2022-10-10T00:44:00.142Z,9.57
2022-10-10T00:46:28.149Z,9.54
2022-10-10T00:48:56.101Z,9.64
2022-10-10T00:51:27.012Z,9.62
2022-10-10T00:54:00.729Z,9.61
2022-10-10T00:56:30.621Z,9.47
2022-10-10T00:59:01.406Z,9.53
2022-10-10T01:01:29.581Z,9.69
2022-10-10T01:03:58.910Z,9.80
2022-10-10T01:06:26.970Z,9.81
2022-10-10T01:08:55.572Z,9.56
2022-10-10T01:11:38.820Z,9.51
2022-10-10T01:14:12.094Z,9.47
2022-10-10T01:16:45.429Z,9.48
2022-10-10T01:19:25.295Z,9.46
2022-10-10T01:22:01.846Z,9.31
2022-10-10T01:24:42.280Z,9.51
2022-10-10T01:27:31.407Z,9.53
2022-10-10T01:30:04.006Z,9.46
2022-10-10T01:32:34.129Z,9.36
2022-10-10T01:35:12.842Z,9.51
2022-10-10T01:37:48.411Z,9.53
2022-10-10T01:40:21.736Z,9.52
2022-10-10T01:42:51.884Z,9.46
2022-10-10T01:45:21.719Z,9.54
2022-10-10T01:47:50.695Z,9.50
2022-10-10T01:50:20.724Z,9.51
2022-10-10T01:52:53.600Z,9.43
2022-10-10T01:55:29.999Z,9.40
2022-10-10T01:58:04.914Z,9.34
2022-10-10T02:00:41.964Z,9.28
2022-10-10T02:03:13.559Z,9.32
2022-10-10T02:05:44.804Z,9.34
2022-10-10T02:08:15.100Z,9.30
2022-10-10T02:10:45.530Z,9.34
2022-10-10T02:13:13.995Z,9.69
2022-10-10T02:15:46.107Z,9.93
2022-10-10T02:18:15.787Z,9.55
2022-10-10T02:20:44.987Z,9.88
2022-10-10T02:23:15.082Z,9.91
2022-10-10T02:25:45.624Z,10.08
2022-10-10T02:28:16.778Z,10.18
2022-10-10T02:30:47.800Z,10.03
2022-10-10T02:33:19.139Z,10.12
2022-10-10T02:35:50.115Z,10.10
2022-10-10T02:38:19.302Z,9.88
2022-10-10T02:40:48.198Z,9.55
2022-10-10T02:43:16.745Z,9.57
2022-10-10T02:45:46.283Z,9.82
2022-10-10T02:48:14.415Z,9.74
2022-10-10T02:50:45.110Z,9.19
2022-10-10T02:53:13.067Z,9.52
2022-10-10T02:55:41.058Z,9.54
2022-10-10T02:58:09.037Z,9.51
2022-10-10T03:00:36.982Z,9.60
2022-10-10T03:03:08.431Z,9.54
2022-10-10T03:05:36.399Z,9.63
2022-10-10T03:08:09.228Z,9.53
2022-10-10T03:10:39.503Z,9.52
2022-10-10T03:13:07.462Z,9.42
2022-10-10T03:15:35.523Z,9.32
2022-10-10T03:18:03.464Z,9.34
2022-10-10T03:20:32.840Z,9.36
2022-10-10T03:23:01.142Z,9.30
2022-10-10T03:25:29.112Z,9.30
2022-10-10T03:27:57.036Z,9.41
2022-10-10T03:30:25.007Z,9.22
2022-10-10T03:32:53.456Z,8.93
2022-10-10T03:35:24.075Z,8.84
2022-10-10T03:37:53.581Z,9.29
2022-10-10T03:40:21.514Z,9.39
2022-10-10T03:42:49.862Z,9.18
2022-10-10T03:45:18.272Z,9.12
2022-10-10T03:47:48.527Z,8.93
2022-10-10T03:50:16.601Z,9.04
2022-10-10T03:52:44.588Z,9.01
2022-10-10T03:55:16.380Z,8.85
2022-10-10T03:57:46.766Z,9.41
2022-10-10T04:00:15.136Z,9.36
2022-10-10T04:02:43.090Z,9.00
2022-10-10T04:05:11.085Z,9.15
2022-10-10T04:07:41.385Z,9.19
2022-10-10T04:10:09.612Z,9.08
2022-10-10T04:12:38.931Z,9.19
2022-10-10T04:15:07.471Z,9.02
2022-10-10T04:17:35.453Z,9.23
2022-10-10T04:20:03.485Z,9.32
2022-10-10T04:22:31.537Z,9.31
2022-10-10T04:25:02.271Z,9.03
2022-10-10T04:27:30.249Z,9.07
2022-10-10T04:29:59.548Z,9.09
2022-10-10T04:32:29.859Z,9.67
2022-10-10T04:34:59.983Z,9.26
2022-10-10T04:37:28.149Z,9.11
2022-10-10T04:39:56.558Z,9.08
2022-10-10T04:42:24.489Z,9.06
2022-10-10T04:44:52.466Z,9.22
2022-10-10T04:47:22.065Z,9.36
2022-10-10T04:49:50.017Z,9.03
2022-10-10T04:52:20.412Z,8.98
2022-10-10T04:54:48.734Z,8.84
2022-10-10T04:57:16.710Z,9.20
2022-10-10T04:59:45.101Z,9.14
2022-10-10T05:02:13.036Z,9.07
2022-10-10T05:04:42.332Z,9.00
2022-10-10T05:07:10.269Z,9.04
2022-10-10T05:09:38.258Z,8.98
2022-10-10T05:12:06.951Z,9.32
2022-10-10T05:14:34.931Z,9.32
2022-10-10T05:17:02.922Z,9.61
2022-10-10T05:19:30.912Z,9.17
2022-10-10T05:22:00.526Z,9.23
2022-10-10T05:24:28.553Z,8.89
2022-10-10T05:26:56.516Z,9.09
2022-10-10T05:29:24.483Z,9.19
2022-10-10T05:31:52.446Z,9.11
2022-10-10T05:34:20.470Z,9.21
2022-10-10T05:36:48.477Z,8.99
2022-10-10T05:39:17.783Z,9.07
2022-10-10T05:41:45.751Z,9.15
2022-10-10T05:44:13.768Z,9.21
2022-10-10T05:46:41.759Z,9.18
2022-10-10T05:49:09.798Z,9.59
2022-10-10T05:51:37.789Z,9.17
2022-10-10T05:54:06.258Z,9.15
2022-10-10T05:56:35.590Z,9.07
2022-10-10T05:59:03.750Z,9.41
2022-10-10T06:01:31.838Z,9.12
2022-10-10T06:03:59.828Z,9.35
2022-10-10T06:06:27.856Z,9.19
2022-10-10T06:08:55.860Z,9.74
2022-10-10T06:11:25.022Z,9.99
2022-10-10T06:13:55.080Z,9.64
2022-10-10T06:16:23.179Z,9.74
2022-10-10T06:18:51.265Z,9.83
2022-10-10T06:21:19.734Z,9.90
2022-10-10T06:23:47.832Z,9.61
2022-10-10T06:26:16.170Z,9.87
2022-10-10T06:28:44.273Z,9.89
2022-10-10T06:31:14.432Z,9.77
2022-10-10T06:33:43.195Z,9.81
2022-10-10T06:36:14.067Z,10.09
2022-10-10T06:38:43.308Z,9.99
2022-10-10T06:41:11.604Z,10.29
2022-10-10T06:43:41.296Z,9.94
2022-10-10T06:46:10.733Z,10.04
2022-10-10T06:48:42.648Z,9.99
2022-10-10T06:51:14.115Z,10.47
2022-10-10T06:53:44.831Z,10.11
2022-10-10T06:56:17.653Z,9.99
2022-10-10T06:58:45.646Z,10.30
2022-10-10T07:01:13.709Z,10.19
2022-10-10T07:03:45.384Z,10.33
2022-10-10T07:06:13.447Z,10.64
2022-10-10T07:08:43.854Z,10.82
2022-10-10T07:11:11.933Z,10.99
2022-10-10T07:13:42.016Z,11.99
2022-10-10T07:16:11.055Z,11.47
2022-10-10T07:18:39.147Z,11.43
2022-10-10T07:21:08.591Z,12.30
2022-10-10T07:23:39.435Z,11.18
2022-10-10T07:26:08.979Z,11.02
2022-10-10T07:28:37.431Z,11.20
2022-10-10T07:31:06.235Z,11.57
2022-10-10T07:33:35.816Z,11.62
2022-10-10T07:36:04.209Z,11.50
2022-10-10T07:38:33.867Z,11.95
2022-10-10T07:41:06.053Z,12.21
2022-10-10T07:43:34.100Z,12.57
2022-10-10T07:46:03.357Z,12.07
2022-10-10T07:48:33.240Z,12.07
2022-10-10T07:51:07.079Z,12.52
2022-10-10T07:53:36.637Z,12.35
2022-10-10T07:56:07.782Z,12.56
2022-10-10T07:58:36.281Z,12.37
2022-10-10T08:01:07.659Z,13.30
2022-10-10T08:03:38.765Z,12.44
2022-10-10T08:06:07.528Z,12.99
2022-10-10T08:08:44.894Z,13.28
2022-10-10T08:11:18.688Z,13.35
2022-10-10T08:13:46.797Z,13.70
2022-10-10T08:16:17.738Z,13.90
2022-10-10T08:18:46.028Z,13.44
2022-10-10T08:21:15.232Z,13.19
2022-10-10T08:23:44.872Z,13.46
2022-10-10T08:26:14.315Z,13.23
2022-10-10T08:28:42.436Z,12.80
2022-10-10T08:31:11.331Z,13.03
2022-10-10T08:33:39.946Z,13.50
2022-10-10T08:36:08.251Z,13.43
2022-10-10T08:38:36.520Z,13.29
2022-10-10T08:41:09.794Z,13.37
2022-10-10T08:43:41.888Z,13.70
2022-10-10T08:46:14.287Z,14.10
2022-10-10T08:48:42.968Z,14.29
2022-10-10T08:51:16.679Z,14.78
2022-10-10T08:53:49.821Z,13.82
2022-10-10T08:56:22.010Z,14.14
2022-10-10T08:58:55.429Z,14.41
2022-10-10T09:01:28.066Z,14.48
2022-10-10T09:03:58.770Z,15.08
2022-10-10T09:06:34.523Z,15.09
2022-10-10T09:09:11.079Z,15.07
2022-10-10T09:11:49.648Z,14.85
2022-10-10T09:14:22.901Z,15.16
2022-10-10T09:16:54.677Z,15.48
2022-10-10T09:19:28.929Z,15.82
2022-10-10T09:22:01.255Z,15.78
2022-10-10T09:24:32.298Z,15.48
2022-10-10T09:27:04.943Z,15.48
2022-10-10T09:29:36.544Z,15.18
2022-10-10T09:32:06.473Z,15.40
2022-10-10T09:34:37.253Z,15.52
2022-10-10T09:37:06.663Z,15.44
2022-10-10T09:39:37.898Z,15.71
2022-10-10T09:42:11.767Z,15.93
2022-10-10T09:44:40.140Z,16.04
2022-10-10T09:47:08.177Z,16.20
2022-10-10T09:49:36.416Z,16.33
2022-10-10T09:52:24.802Z,16.54
2022-10-10T09:54:56.277Z,17.15
2022-10-10T09:57:26.971Z,16.81
2022-10-10T09:59:55.197Z,16.74
2022-10-10T10:02:24.961Z,17.06
2022-10-10T10:04:53.540Z,16.81
2022-10-10T10:07:24.545Z,16.76
2022-10-10T10:09:55.800Z,16.99
2022-10-10T10:12:26.862Z,17.12
2022-10-10T10:14:59.597Z,17.18
2022-10-10T10:17:27.743Z,17.40
2022-10-10T10:19:55.742Z,17.18
2022-10-10T10:22:26.720Z,17.47
2022-10-10T10:24:55.477Z,17.63
2022-10-10T10:27:26.007Z,17.95
2022-10-10T10:29:57.758Z,17.55
2022-10-10T10:32:38.889Z,17.83
2022-10-10T10:35:13.115Z,17.92
2022-10-10T10:37:48.169Z,18.24
2022-10-10T10:40:25.007Z,17.99
2022-10-10T10:43:09.260Z,17.81
2022-10-10T10:45:41.000Z,18.13
2022-10-10T10:48:11.676Z,18.49
2022-10-10T10:50:46.203Z,18.70
2022-10-10T10:53:19.673Z,18.67
2022-10-10T10:55:50.619Z,18.84
2022-10-10T11:01:45.004Z,18.43
2022-10-10T11:05:17.437Z,18.29
2022-10-10T11:07:25.128Z,18.23
2022-10-10T11:09:56.558Z,18.89
2022-10-10T11:12:43.143Z,18.61
2022-10-10T11:15:16.933Z,18.76
2022-10-10T11:17:48.099Z,18.56
2022-10-10T11:20:22.390Z,18.45
2022-10-10T11:22:53.480Z,18.41
2022-10-10T11:25:23.853Z,18.99
2022-10-10T11:27:53.938Z,18.81
2022-10-10T11:30:25.077Z,18.76
2022-10-10T11:32:54.948Z,19.06
2022-10-10T11:35:28.140Z,19.14
2022-10-10T11:38:00.500Z,19.01
2022-10-10T11:40:33.239Z,19.10
2022-10-10T11:43:03.922Z,19.05
2022-10-10T11:45:35.442Z,19.23
2022-10-10T11:48:08.348Z,19.16
2022-10-10T11:50:41.282Z,19.42
2022-10-10T11:53:13.954Z,19.53
2022-10-10T11:55:48.246Z,19.74
2022-10-10T11:58:26.173Z,19.81
2022-10-10T12:00:58.218Z,19.94
2022-10-10T12:03:26.500Z,19.81
2022-10-10T12:05:59.181Z,20.22
2022-10-10T12:08:32.719Z,19.88
2022-10-10T12:11:07.635Z,20.46
2022-10-10T12:13:38.109Z,20.54
2022-10-10T12:16:09.631Z,20.65
2022-10-10T12:18:43.190Z,21.10
2022-10-10T12:21:14.515Z,20.46
2022-10-10T12:23:43.552Z,20.45
2022-10-10T12:26:15.892Z,21.45
2022-10-10T12:29:00.527Z,21.46
2022-10-10T12:31:38.613Z,21.09
2022-10-10T12:34:16.842Z,20.86
2022-10-10T12:36:55.803Z,21.47
2022-10-10T12:39:34.330Z,21.79
2022-10-10T12:42:02.487Z,21.52
2022-10-10T12:44:43.740Z,21.04
2022-10-10T12:47:52.568Z,20.80
2022-10-10T12:50:23.454Z,21.18
2022-10-10T12:52:54.813Z,21.50
2022-10-10T12:55:24.840Z,21.40
2022-10-10T12:57:55.131Z,22.04
2022-10-10T13:00:23.875Z,21.86
2022-10-10T13:02:55.147Z,21.75
2022-10-10T13:05:31.766Z,21.73
2022-10-10T13:08:01.171Z,21.67
2022-10-10T13:10:32.125Z,22.27
2022-10-10T13:13:01.189Z,21.94
2022-10-10T13:15:29.781Z,21.52
2022-10-10T13:17:59.803Z,22.39
2022-10-10T13:20:31.894Z,22.26
2022-10-10T13:23:03.254Z,22.32
2022-10-10T13:25:31.581Z,22.48
2022-10-10T13:27:59.604Z,22.33
2022-10-10T13:30:30.098Z,22.29
2022-10-10T13:32:59.540Z,22.56
2022-10-10T13:35:29.064Z,22.34
2022-10-10T13:38:01.405Z,22.26
2022-10-10T13:40:29.719Z,22.32
2022-10-10T13:42:58.569Z,22.27
2022-10-10T13:45:33.610Z,22.32
2022-10-10T13:48:26.321Z,22.47
2022-10-10T13:51:02.642Z,22.08
2022-10-10T13:53:33.238Z,22.19
2022-10-10T13:56:03.183Z,21.95
2022-10-10T13:58:32.051Z,20.88
2022-10-10T14:01:01.426Z,21.22
2022-10-10T14:03:32.274Z,21.22
2022-10-10T14:06:00.366Z,21.38
2022-10-10T14:08:31.388Z,21.37
2022-10-10T14:11:01.746Z,21.50
2022-10-10T14:13:31.419Z,21.18
2022-10-10T14:16:10.910Z,21.39
2022-10-10T14:18:40.446Z,21.91
2022-10-10T14:21:09.399Z,21.60
2022-10-10T14:23:39.862Z,21.59
2022-10-10T14:26:08.834Z,21.82
2022-10-10T14:28:38.647Z,21.52
2022-10-10T14:31:07.060Z,21.49
2022-10-10T14:33:35.081Z,21.50
2022-10-10T14:36:04.781Z,21.50
2022-10-10T14:38:33.128Z,21.41
2022-10-10T14:41:01.892Z,21.72
2022-10-10T14:43:30.290Z,21.53
2022-10-10T14:45:58.299Z,20.79
2022-10-10T14:48:26.365Z,21.54
2022-10-10T14:50:54.315Z,21.58
2022-10-10T14:53:24.518Z,21.67
2022-10-10T14:55:56.163Z,21.57
2022-10-10T14:58:24.535Z,21.67
2022-10-10T15:00:53.023Z,21.97
2022-10-10T15:03:21.684Z,21.83
2022-10-10T15:05:52.184Z,21.95
2022-10-10T15:08:20.302Z,21.92
2022-10-10T15:10:49.641Z,21.75
2022-10-10T15:13:17.773Z,21.70
2022-10-10T15:15:47.274Z,21.73
2022-10-10T15:18:40.933Z,21.67
2022-10-10T15:21:08.344Z,21.98
2022-10-10T15:23:36.306Z,21.76
2022-10-10T15:26:06.268Z,22.00
2022-10-10T15:28:36.722Z,21.19
2022-10-10T15:31:05.515Z,21.26
2022-10-10T15:33:33.800Z,21.18
2022-10-10T15:36:11.076Z,21.12
2022-10-10T15:38:40.932Z,20.92
2022-10-10T15:41:11.086Z,21.07
2022-10-10T15:43:43.794Z,21.03
2022-10-10T15:46:11.883Z,20.59
2022-10-10T15:48:42.251Z,20.90
2022-10-10T15:51:10.252Z,21.10
2022-10-10T15:53:38.285Z,20.81
2022-10-10T15:56:09.963Z,20.78
2022-10-10T15:58:40.313Z,20.79
2022-10-10T16:01:12.260Z,20.99
2022-10-10T16:03:40.333Z,20.62
2022-10-10T16:06:08.854Z,20.93
2022-10-10T16:08:37.064Z,20.93
2022-10-10T16:11:05.943Z,21.07
2022-10-10T16:13:34.395Z,20.71
2022-10-10T16:16:07.213Z,20.90
2022-10-10T16:18:39.991Z,20.57
2022-10-10T16:21:08.899Z,20.59
2022-10-10T16:23:37.226Z,20.61
2022-10-10T16:26:06.166Z,20.38
2022-10-10T16:28:34.408Z,20.09
2022-10-10T16:31:02.941Z,20.07
2022-10-10T16:33:33.772Z,20.21
2022-10-10T16:36:01.763Z,20.13
2022-10-10T16:38:29.768Z,19.96
2022-10-10T16:41:02.152Z,19.94
2022-10-10T16:43:30.271Z,19.63
2022-10-10T16:46:01.692Z,19.41
2022-10-10T16:48:31.294Z,19.00
2022-10-10T16:51:03.682Z,18.81
2022-10-10T16:53:32.902Z,18.50
2022-10-10T16:56:01.505Z,17.70
2022-10-10T16:58:30.133Z,17.55
2022-10-10T17:01:05.697Z,18.03
2022-10-10T17:03:34.109Z,18.16
2022-10-10T17:06:04.043Z,17.97
2022-10-10T17:08:32.610Z,18.12
2022-10-10T17:11:01.308Z,18.26
2022-10-10T17:13:31.127Z,18.23
2022-10-10T17:16:21.757Z,18.11
2022-10-10T17:18:47.242Z,18.02
2022-10-10T17:21:17.807Z,17.49
2022-10-10T17:23:46.253Z,17.37
2022-10-10T17:26:17.679Z,17.45
2022-10-10T17:28:45.733Z,17.37
2022-10-10T17:31:15.354Z,17.53
2022-10-10T17:33:47.688Z,17.86
2022-10-10T17:36:21.509Z,17.82
2022-10-10T17:38:49.532Z,17.97
2022-10-10T17:41:17.879Z,17.97
2022-10-10T17:43:46.236Z,17.81
2022-10-10T17:46:33.880Z,17.87
2022-10-10T17:49:03.153Z,17.77
2022-10-10T17:51:32.524Z,17.65
2022-10-10T17:54:04.203Z,16.84
2022-10-10T17:56:32.541Z,16.71
2022-10-10T17:59:01.926Z,17.11
2022-10-10T18:01:31.196Z,17.28
2022-10-10T18:03:59.307Z,17.26
2022-10-10T18:06:28.963Z,16.99
2022-10-10T18:08:58.847Z,17.17
2022-10-10T18:11:28.247Z,16.29
2022-10-10T18:14:00.235Z,16.48
2022-10-10T18:16:29.716Z,16.58
2022-10-10T18:19:00.429Z,16.47
2022-10-10T18:21:30.639Z,17.00
2022-10-10T18:24:00.665Z,16.87
2022-10-10T18:26:30.081Z,16.67
2022-10-10T18:28:58.671Z,16.68
2022-10-10T18:31:28.187Z,16.49
2022-10-10T18:33:56.485Z,16.55
2022-10-10T18:36:26.782Z,16.19
2022-10-10T18:38:54.881Z,15.65
2022-10-10T18:41:30.366Z,15.61
2022-10-10T18:43:58.405Z,15.67
2022-10-10T18:46:26.440Z,15.70
2022-10-10T18:48:54.530Z,15.64
2022-10-10T18:51:24.143Z,15.55
2022-10-10T18:53:52.882Z,15.45
2022-10-10T18:56:24.548Z,15.39
2022-10-10T18:58:56.988Z,15.45
2022-10-10T19:01:25.738Z,15.50
2022-10-10T19:03:54.654Z,15.46
2022-10-10T19:06:25.170Z,15.50
2022-10-10T19:08:55.091Z,15.51
2022-10-10T19:11:23.944Z,15.51
2022-10-10T19:13:51.991Z,15.32
2022-10-10T19:16:21.666Z,14.96
2022-10-10T19:18:49.650Z,15.09
2022-10-10T19:21:17.710Z,14.96
2022-10-10T19:23:45.722Z,14.90
2022-10-10T19:26:14.820Z,14.91
2022-10-10T19:28:43.760Z,15.20
2022-10-10T19:31:12.862Z,15.27
2022-10-10T19:33:43.667Z,15.36
2022-10-10T19:36:12.323Z,15.37
2022-10-10T19:38:42.868Z,15.22
2022-10-10T19:41:14.206Z,15.33
2022-10-10T19:43:42.274Z,15.43
2022-10-10T19:46:12.033Z,15.35
2022-10-10T19:48:40.054Z,15.01
2022-10-10T19:51:10.722Z,15.35
2022-10-10T19:53:41.365Z,15.28
2022-10-10T19:56:11.511Z,15.21
2022-10-10T19:58:39.511Z,15.42
2022-10-10T20:01:08.227Z,15.20
2022-10-10T20:03:36.738Z,15.34
2022-10-10T20:06:07.499Z,15.10
2022-10-10T20:08:39.428Z,15.00
2022-10-10T20:11:07.475Z,14.87
2022-10-10T20:13:35.795Z,15.13
2022-10-10T20:16:05.537Z,15.26
2022-10-10T20:18:34.757Z,14.99
2022-10-10T20:21:07.093Z,14.73
2022-10-10T20:23:35.381Z,14.94
2022-10-10T20:26:08.710Z,14.93
2022-10-10T20:28:36.875Z,14.66
2022-10-10T20:31:05.026Z,14.49
2022-10-10T20:33:33.018Z,14.44
2022-10-10T20:36:04.378Z,14.70
2022-10-10T20:38:32.611Z,14.60
2022-10-10T20:41:05.302Z,14.56
2022-10-10T20:43:38.452Z,14.73
2022-10-10T20:46:09.416Z,14.78
2022-10-10T20:48:37.972Z,14.66
2022-10-10T20:51:07.129Z,14.65
2022-10-10T20:53:36.175Z,14.55
2022-10-10T20:56:05.370Z,14.55
2022-10-10T20:58:34.716Z,14.66
2022-10-10T21:01:08.361Z,14.58
2022-10-10T21:03:39.135Z,14.33
2022-10-10T21:06:09.156Z,14.47
2022-10-10T21:08:37.336Z,14.18
2022-10-10T21:11:06.859Z,14.07
2022-10-10T21:13:38.177Z,14.39
2022-10-10T21:16:07.528Z,14.51
2022-10-10T21:18:37.335Z,14.49
2022-10-10T21:21:06.080Z,14.53
2022-10-10T21:23:34.713Z,14.85
2022-10-10T21:26:05.066Z,14.76
2022-10-10T21:28:33.565Z,14.98
2022-10-10T21:31:02.204Z,14.83
2022-10-10T21:33:30.506Z,14.70
2022-10-10T21:36:02.756Z,14.51
2022-10-10T21:38:31.454Z,14.51
2022-10-10T21:41:05.302Z,14.56
2022-10-10T21:43:33.727Z,14.67
2022-10-10T21:46:05.122Z,14.94
2022-10-10T21:48:33.382Z,14.87
2022-10-10T21:51:03.203Z,15.18
2022-10-10T21:53:32.095Z,14.96
2022-10-10T21:56:05.224Z,14.95
2022-10-10T21:58:34.281Z,14.77
2022-10-10T22:02:39.954Z,14.78
2022-10-10T22:05:11.133Z,14.95
2022-10-10T22:07:39.381Z,15.09
2022-10-10T22:10:08.314Z,14.94
2022-10-10T22:12:36.346Z,15.10
2022-10-10T22:15:04.429Z,15.33
2022-10-10T22:17:32.361Z,15.23
2022-10-10T22:20:01.709Z,15.29
2022-10-10T22:22:29.668Z,15.16
2022-10-10T22:24:57.682Z,15.59
2022-10-10T22:27:25.661Z,15.55
2022-10-10T22:29:53.848Z,15.54
2022-10-10T22:32:21.848Z,15.48
2022-10-10T22:34:50.668Z,15.26
2022-10-10T22:37:22.380Z,15.34
2022-10-10T22:39:52.798Z,14.98
2022-10-10T22:42:20.963Z,15.16
2022-10-10T22:44:48.960Z,15.08
2022-10-10T22:47:19.420Z,14.95
2022-10-10T22:49:47.411Z,15.10
2022-10-10T22:52:15.388Z,15.19
2022-10-10T22:54:44.798Z,15.30
2022-10-10T22:57:12.849Z,15.46
2022-10-10T22:59:40.858Z,15.53
2022-10-10T23:02:08.856Z,15.22
2022-10-10T23:04:36.841Z,14.98
2022-10-10T23:07:04.809Z,14.85
2022-10-10T23:09:35.207Z,14.99
2022-10-10T23:12:06.975Z,14.84
2022-10-10T23:14:37.031Z,14.73
2022-10-10T23:17:05.068Z,14.88
2022-10-10T23:19:33.104Z,14.73
2022-10-10T23:22:01.418Z,14.84
2022-10-10T23:24:29.392Z,14.85
2022-10-10T23:26:57.354Z,14.95
2022-10-10T23:29:26.828Z,14.91
2022-10-10T23:31:54.806Z,14.76
2022-10-10T23:34:22.854Z,14.87
2022-10-10T23:36:50.830Z,15.10
2022-10-10T23:39:18.813Z,14.78
2022-10-10T23:41:46.763Z,14.95
2022-10-10T23:44:17.041Z,15.05
2022-10-10T23:46:46.714Z,14.98
2022-10-10T23:49:14.651Z,14.92
2022-10-10T23:51:42.717Z,15.07
2022-10-10T23:54:10.663Z,15.11
2022-10-10T23:56:40.979Z,14.97
2022-10-10T23:59:09.045Z,14.92
